createdAt,value
2023-03-20T00:00:47.772Z,9.23
2023-03-20T00:03:17.225Z,9.25
2023-03-20T00:05:45.371Z,9.22
2023-03-20T00:08:14.144Z,9.19
2023-03-20T00:10:43.274Z,9.15
2023-03-20T00:13:17.929Z,9.22
2023-03-20T00:15:46.078Z,9.18
2023-03-20T00:18:18.396Z,9.17
2023-03-20T00:20:46.491Z,9.12
2023-03-20T00:23:14.452Z,9.18
2023-03-20T00:25:43.276Z,9.28
2023-03-20T00:28:34.074Z,9.22
2023-03-20T00:31:02.025Z,9.22
2023-03-20T00:33:31.364Z,9.25
2023-03-20T00:35:59.455Z,9.27
2023-03-20T00:38:27.444Z,9.28
2023-03-20T00:40:55.332Z,9.33
2023-03-20T00:43:23.278Z,9.37
2023-03-20T00:45:51.180Z,9.26
2023-03-20T00:48:19.118Z,9.25
2023-03-20T00:50:49.693Z,9.20
2023-03-20T00:53:17.590Z,9.14
2023-03-20T00:55:45.580Z,9.17
2023-03-20T00:58:13.508Z,9.19
2023-03-20T01:00:42.713Z,9.19
2023-03-20T01:03:17.085Z,9.24
2023-03-20T01:05:45.778Z,9.24
2023-03-20T01:08:17.377Z,9.26
2023-03-20T01:10:46.462Z,9.30
2023-03-20T01:13:20.745Z,9.26
2023-03-20T01:15:49.313Z,9.15
2023-03-20T01:18:17.689Z,9.19
2023-03-20T01:20:45.932Z,9.23
2023-03-20T01:23:15.958Z,9.26
2023-03-20T01:25:44.291Z,9.21
2023-03-20T01:28:18.383Z,9.33
2023-03-20T01:30:46.906Z,9.30
2023-03-20T01:33:16.735Z,9.23
2023-03-20T01:35:45.133Z,9.16
2023-03-20T01:38:16.795Z,9.25
2023-03-20T01:40:51.053Z,9.20
2023-03-20T01:43:20.480Z,9.16
2023-03-20T01:45:55.811Z,9.16
2023-03-20T01:48:25.440Z,9.23
2023-03-20T01:50:53.330Z,9.19
2023-03-20T01:53:24.693Z,9.13
2023-03-20T01:55:55.308Z,9.18
2023-03-20T01:58:25.992Z,9.14
2023-03-20T02:00:53.955Z,9.16
2023-03-20T02:03:22.496Z,9.03
2023-03-20T02:05:50.893Z,8.98
2023-03-20T02:08:24.744Z,9.01
2023-03-20T02:10:52.884Z,8.96
2023-03-20T02:13:21.015Z,8.94
2023-03-20T02:16:00.879Z,8.90
2023-03-20T02:18:28.892Z,8.91
2023-03-20T02:21:13.524Z,8.81
2023-03-20T02:24:15.927Z,8.93
2023-03-20T02:26:51.303Z,8.80
2023-03-20T02:29:50.772Z,8.81
2023-03-20T02:32:57.072Z,8.79
2023-03-20T02:35:49.065Z,8.73
2023-03-20T02:38:27.275Z,8.75
2023-03-20T02:41:00.857Z,8.65
2023-03-20T02:43:32.493Z,8.75
2023-03-20T02:46:07.707Z,8.75
2023-03-20T02:48:43.013Z,8.70
2023-03-20T02:51:14.220Z,8.76
2023-03-20T02:53:50.382Z,8.77
2023-03-20T02:56:23.319Z,8.58
2023-03-20T02:58:55.872Z,8.58
2023-03-20T03:01:28.201Z,8.55
2023-03-20T03:03:57.634Z,8.45
2023-03-20T03:06:29.682Z,8.55
2023-03-20T03:09:02.302Z,8.49
2023-03-20T03:11:31.706Z,8.44
2023-03-20T03:14:00.151Z,8.46
2023-03-20T03:16:30.648Z,8.44
2023-03-20T03:19:06.560Z,8.41
2023-03-20T03:21:35.164Z,8.33
2023-03-20T03:24:04.781Z,8.44
2023-03-20T03:26:37.365Z,8.52
2023-03-20T03:29:09.451Z,8.49
2023-03-20T03:31:39.116Z,8.29
2023-03-20T03:34:07.415Z,8.27
2023-03-20T03:36:43.093Z,8.28
2023-03-20T03:39:18.947Z,8.26
2023-03-20T03:41:48.428Z,8.21
2023-03-20T03:44:22.708Z,8.18
2023-03-20T03:46:53.111Z,8.16
2023-03-20T03:49:23.980Z,8.29
2023-03-20T03:51:54.957Z,8.20
2023-03-20T03:54:26.599Z,8.18
2023-03-20T03:56:55.743Z,8.08
2023-03-20T03:59:27.648Z,8.02
2023-03-20T04:01:55.796Z,8.06
2023-03-20T04:04:24.678Z,8.16
2023-03-20T04:06:52.684Z,8.13
2023-03-20T04:09:20.619Z,7.98
2023-03-20T04:11:52.091Z,8.06
2023-03-20T04:14:20.121Z,7.97
2023-03-20T04:16:48.233Z,8.09
2023-03-20T04:19:16.105Z,8.05
2023-03-20T04:21:45.707Z,8.01
2023-03-20T04:24:13.604Z,7.96
2023-03-20T04:26:41.509Z,7.99
2023-03-20T04:29:11.163Z,8.03
2023-03-20T04:31:39.118Z,7.95
2023-03-20T04:34:07.257Z,8.07
2023-03-20T04:36:35.328Z,8.03
2023-03-20T04:39:03.238Z,8.16
2023-03-20T04:41:31.177Z,8.01
2023-03-20T04:43:59.097Z,7.94
2023-03-20T04:46:28.530Z,7.93
2023-03-20T04:48:56.455Z,7.97
2023-03-20T04:51:24.344Z,7.93
2023-03-20T04:53:52.309Z,7.92
2023-03-20T04:56:20.188Z,7.95
2023-03-20T04:58:48.396Z,7.89
2023-03-20T05:01:16.330Z,8.01
2023-03-20T05:03:46.703Z,8.02
2023-03-20T05:06:14.707Z,7.93
2023-03-20T05:08:42.612Z,7.89
2023-03-20T05:11:10.493Z,7.94
2023-03-20T05:13:38.417Z,8.09
2023-03-20T05:16:06.924Z,8.05
2023-03-20T05:18:34.826Z,8.04
2023-03-20T05:21:04.365Z,8.05
2023-03-20T05:23:32.267Z,8.06
2023-03-20T05:26:00.493Z,8.00
2023-03-20T05:28:28.463Z,7.99
2023-03-20T05:30:56.568Z,8.08
2023-03-20T05:33:24.605Z,7.96
2023-03-20T05:35:52.596Z,7.95
2023-03-20T05:38:22.780Z,8.03
2023-03-20T05:40:50.770Z,7.94
2023-03-20T05:43:18.692Z,8.07
2023-03-20T05:45:46.658Z,7.97
2023-03-20T05:48:14.592Z,7.96
2023-03-20T05:50:42.616Z,7.99
2023-03-20T05:53:10.587Z,8.03
2023-03-20T05:55:41.498Z,7.91
2023-03-20T05:58:09.473Z,7.98
2023-03-20T06:00:37.388Z,7.96
2023-03-20T06:03:06.869Z,7.87
2023-03-20T06:05:35.470Z,8.01
2023-03-20T06:08:04.307Z,8.07
2023-03-20T06:10:32.690Z,8.09
2023-03-20T06:13:02.010Z,8.14
2023-03-20T06:15:30.005Z,8.18
2023-03-20T06:17:58.917Z,8.09
2023-03-20T06:20:26.832Z,7.99
2023-03-20T06:22:54.709Z,8.03
2023-03-20T06:25:22.660Z,8.03
2023-03-20T06:27:50.904Z,8.00
2023-03-20T06:30:20.543Z,8.10
2023-03-20T06:32:48.565Z,8.11
2023-03-20T06:35:18.159Z,8.07
2023-03-20T06:37:46.109Z,7.98
2023-03-20T06:40:14.054Z,8.07
2023-03-20T06:42:42.016Z,8.11
2023-03-20T06:45:11.284Z,8.07
2023-03-20T06:47:40.921Z,8.15
2023-03-20T06:50:10.396Z,8.18
2023-03-20T06:52:38.531Z,8.17
2023-03-20T06:55:07.281Z,8.16
2023-03-20T06:57:35.330Z,8.16
2023-03-20T07:00:04.262Z,8.17
2023-03-20T07:02:32.528Z,8.18
2023-03-20T07:05:01.895Z,8.20
2023-03-20T07:07:29.861Z,8.18
2023-03-20T07:09:57.821Z,8.30
2023-03-20T07:12:28.646Z,8.27
2023-03-20T07:14:56.996Z,8.32
2023-03-20T07:17:25.047Z,8.26
2023-03-20T07:19:52.951Z,8.31
2023-03-20T07:22:26.143Z,8.26
2023-03-20T07:24:54.058Z,8.32
2023-03-20T07:27:22.239Z,8.28
2023-03-20T07:29:50.190Z,8.26
2023-03-20T07:32:18.226Z,8.26
2023-03-20T07:34:47.631Z,8.36
2023-03-20T07:37:15.888Z,8.31
2023-03-20T07:39:45.202Z,8.41
2023-03-20T07:42:13.789Z,8.38
2023-03-20T07:44:41.741Z,8.43
2023-03-20T07:47:09.702Z,8.43
2023-03-20T07:49:37.670Z,8.45
2023-03-20T07:52:05.598Z,8.54
2023-03-20T07:54:33.503Z,8.47
2023-03-20T07:57:03.608Z,8.55
2023-03-20T07:59:31.717Z,8.48
2023-03-20T08:01:59.791Z,8.52
2023-03-20T08:04:27.947Z,8.59
2023-03-20T08:06:56.009Z,8.64
2023-03-20T08:09:27.080Z,8.62
2023-03-20T08:11:55.009Z,8.63
2023-03-20T08:14:24.603Z,8.70
2023-03-20T08:17:10.258Z,8.71
2023-03-20T08:19:40.428Z,8.63
2023-03-20T08:22:08.337Z,8.69
2023-03-20T08:24:36.718Z,8.75
2023-03-20T08:27:04.897Z,8.56
2023-03-20T08:29:34.218Z,8.56
2023-03-20T08:32:02.164Z,8.63
2023-03-20T08:34:30.076Z,8.73
2023-03-20T08:36:57.969Z,8.73
2023-03-20T08:39:25.884Z,8.62
2023-03-20T08:41:53.940Z,8.68
2023-03-20T08:44:21.941Z,8.72
2023-03-20T08:46:51.223Z,8.67
2023-03-20T08:49:19.110Z,8.72
2023-03-20T08:51:47.164Z,8.77
2023-03-20T08:54:18.328Z,8.70
2023-03-20T08:56:46.405Z,8.72
2023-03-20T08:59:14.440Z,8.68
2023-03-20T09:01:49.657Z,8.78
2023-03-20T09:04:19.941Z,8.71
2023-03-20T09:07:04.201Z,8.80
2023-03-20T09:09:32.517Z,8.81
2023-03-20T09:12:01.658Z,8.91
2023-03-20T09:14:29.973Z,8.86
2023-03-20T09:16:58.017Z,8.91
2023-03-20T09:19:27.402Z,8.87
2023-03-20T09:21:55.520Z,8.95
2023-03-20T09:24:23.422Z,8.92
2023-03-20T09:26:52.210Z,9.04
2023-03-20T09:29:20.141Z,9.06
2023-03-20T09:31:48.051Z,9.14
2023-03-20T09:34:16.093Z,9.00
2023-03-20T09:36:45.422Z,8.98
2023-03-20T09:39:13.380Z,9.10
2023-03-20T09:41:55.928Z,9.08
2023-03-20T09:44:37.294Z,9.13
2023-03-20T09:47:20.393Z,9.12
2023-03-20T09:49:57.139Z,8.95
2023-03-20T09:52:28.674Z,8.92
2023-03-20T09:54:59.445Z,8.94
2023-03-20T09:57:30.442Z,9.03
2023-03-20T10:00:00.909Z,9.13
2023-03-20T10:02:38.342Z,9.15
2023-03-20T10:05:16.232Z,9.19
2023-03-20T10:07:45.592Z,9.19
2023-03-20T10:10:14.768Z,9.11
2023-03-20T10:12:51.955Z,9.15
2023-03-20T10:15:23.144Z,9.20
2023-03-20T10:17:58.661Z,9.15
2023-03-20T10:20:31.700Z,9.09
2023-03-20T10:23:05.289Z,9.24
2023-03-20T10:25:35.721Z,9.27
2023-03-20T10:28:05.610Z,9.25
2023-03-20T10:30:40.237Z,9.26
2023-03-20T10:33:17.541Z,9.12
2023-03-20T10:35:50.179Z,9.19
2023-03-20T10:38:27.897Z,9.23
2023-03-20T10:40:57.963Z,9.28
2023-03-20T10:43:29.591Z,9.18
2023-03-20T10:46:01.951Z,9.22
2023-03-20T10:48:32.319Z,9.34
2023-03-20T10:51:02.191Z,9.37
2023-03-20T10:53:37.985Z,9.28
2023-03-20T10:56:08.382Z,9.29
2023-03-20T10:58:39.816Z,9.45
2023-03-20T11:01:08.110Z,9.48
2023-03-20T11:03:39.670Z,9.50
2023-03-20T11:06:12.693Z,9.59
2023-03-20T11:08:43.568Z,9.61
2023-03-20T11:11:11.742Z,9.63
2023-03-20T11:13:41.601Z,9.59
2023-03-20T11:16:19.287Z,9.47
2023-03-20T11:18:49.251Z,9.52
2023-03-20T11:21:21.077Z,9.60
2023-03-20T11:23:50.945Z,9.68
2023-03-20T11:26:21.927Z,9.90
2023-03-20T11:28:52.155Z,9.77
2023-03-20T11:31:22.458Z,9.85
2023-03-20T11:33:54.420Z,9.83
2023-03-20T11:36:27.807Z,9.85
2023-03-20T11:39:02.745Z,9.87
2023-03-20T11:41:30.728Z,9.93
2023-03-20T11:43:58.804Z,9.95
2023-03-20T11:46:27.037Z,10.09
2023-03-20T11:49:10.518Z,10.01
2023-03-20T11:51:40.563Z,10.12
2023-03-20T11:54:29.562Z,10.29
2023-03-20T11:57:15.249Z,10.46
2023-03-20T11:59:43.240Z,10.60
2023-03-20T12:02:20.136Z,10.71
2023-03-20T12:04:48.180Z,10.66
2023-03-20T12:07:21.292Z,10.76
2023-03-20T12:09:54.112Z,10.83
2023-03-20T12:12:35.982Z,10.90
2023-03-20T12:15:11.850Z,10.94
2023-03-20T12:17:55.345Z,11.02
2023-03-20T12:20:31.162Z,11.05
2023-03-20T12:23:04.851Z,11.02
2023-03-20T12:25:39.823Z,10.92
2023-03-20T12:28:13.977Z,10.96
2023-03-20T12:30:52.916Z,10.91
2023-03-20T12:33:25.603Z,10.98
2023-03-20T12:35:54.961Z,10.98
2023-03-20T12:38:26.358Z,11.00
2023-03-20T12:40:59.764Z,11.04
2023-03-20T12:43:34.055Z,11.04
2023-03-20T12:46:11.200Z,11.03
2023-03-20T12:48:53.848Z,11.01
2023-03-20T12:51:27.099Z,10.93
2023-03-20T12:54:03.062Z,10.96
2023-03-20T12:56:46.688Z,10.93
2023-03-20T12:59:20.665Z,10.92
2023-03-20T13:01:53.169Z,10.91
2023-03-20T13:04:47.833Z,10.94
2023-03-20T13:07:20.352Z,10.91
2023-03-20T13:09:59.700Z,10.84
2023-03-20T13:12:37.072Z,10.89
2023-03-20T13:15:17.404Z,10.83
2023-03-20T13:17:48.370Z,10.69
2023-03-20T13:20:27.132Z,10.64
2023-03-20T13:23:14.948Z,10.57
2023-03-20T13:25:53.797Z,10.48
2023-03-20T13:28:27.192Z,10.48
2023-03-20T13:30:58.370Z,10.45
2023-03-20T13:33:36.456Z,10.41
2023-03-20T13:36:09.924Z,10.45
2023-03-20T13:38:41.442Z,10.55
2023-03-20T13:41:11.628Z,10.46
2023-03-20T13:43:42.740Z,10.40
2023-03-20T13:46:12.848Z,10.30
2023-03-20T13:48:41.733Z,10.43
2023-03-20T13:51:18.497Z,10.45
2023-03-20T13:53:53.393Z,10.32
2023-03-20T13:56:30.440Z,10.32
2023-03-20T13:59:11.740Z,10.41
2023-03-20T14:01:50.972Z,10.35
2023-03-20T14:04:20.510Z,10.30
2023-03-20T14:06:53.803Z,10.33
2023-03-20T14:09:33.397Z,10.30
2023-03-20T14:12:07.387Z,10.30
2023-03-20T14:14:42.843Z,10.29
2023-03-20T14:17:17.118Z,10.25
2023-03-20T14:19:45.291Z,10.25
2023-03-20T14:22:17.364Z,10.28
2023-03-20T14:24:53.255Z,10.27
2023-03-20T14:27:36.711Z,10.27
2023-03-20T14:30:42.987Z,10.30
2023-03-20T14:33:27.159Z,10.36
2023-03-20T14:36:13.961Z,10.36
2023-03-20T14:38:53.358Z,10.37
2023-03-20T14:41:25.719Z,10.23
2023-03-20T14:43:59.728Z,10.30
2023-03-20T14:46:33.793Z,10.30
2023-03-20T14:49:06.008Z,10.30
2023-03-20T14:51:39.053Z,10.21
2023-03-20T14:54:28.304Z,10.20
2023-03-20T14:56:57.139Z,10.28
2023-03-20T14:59:25.755Z,10.28
2023-03-20T15:02:00.292Z,10.18
2023-03-20T15:04:36.124Z,10.21
2023-03-20T15:07:06.527Z,10.18
2023-03-20T15:09:37.278Z,10.12
2023-03-20T15:12:05.843Z,10.26
2023-03-20T15:14:41.870Z,10.12
2023-03-20T15:17:18.214Z,10.07
2023-03-20T15:19:54.389Z,10.07
2023-03-20T15:22:22.840Z,10.08
2023-03-20T15:24:55.840Z,10.19
2023-03-20T15:27:26.118Z,10.12
2023-03-20T15:29:56.003Z,10.16
2023-03-20T15:32:25.584Z,10.12
2023-03-20T15:34:53.639Z,10.14
2023-03-20T15:37:23.515Z,10.13
2023-03-20T15:39:55.450Z,10.10
2023-03-20T15:42:25.758Z,10.15
2023-03-20T15:44:55.239Z,10.08
2023-03-20T15:47:25.386Z,10.14
2023-03-20T15:50:10.603Z,10.11
2023-03-20T15:52:42.247Z,10.17
2023-03-20T15:55:14.024Z,10.22
2023-03-20T15:58:25.205Z,10.10
2023-03-20T16:00:59.667Z,10.04
2023-03-20T16:03:29.747Z,10.07
2023-03-20T16:06:23.209Z,10.04
2023-03-20T16:08:58.670Z,9.99
2023-03-20T16:11:26.604Z,9.97
2023-03-20T16:13:54.775Z,9.94
2023-03-20T16:16:24.620Z,9.91
2023-03-20T16:18:54.536Z,9.90
2023-03-20T16:21:25.411Z,9.82
2023-03-20T16:23:55.083Z,9.79
2023-03-20T16:26:24.820Z,9.83
2023-03-20T16:28:55.536Z,9.73
2023-03-20T16:31:26.847Z,9.62
2023-03-20T16:33:59.603Z,9.76
2023-03-20T16:36:32.682Z,9.71
2023-03-20T16:39:07.517Z,9.61
2023-03-20T16:41:37.193Z,9.59
2023-03-20T16:44:10.129Z,9.70
2023-03-20T16:46:38.088Z,9.70
2023-03-20T16:49:49.628Z,9.54
2023-03-20T16:52:18.127Z,9.43
2023-03-20T16:54:46.502Z,9.30
2023-03-20T16:57:17.345Z,9.21
2023-03-20T16:59:47.650Z,9.38
2023-03-20T17:02:25.245Z,9.26
2023-03-20T17:05:00.152Z,9.30
2023-03-20T17:07:30.909Z,9.24
2023-03-20T17:10:01.340Z,9.23
2023-03-20T17:12:32.874Z,9.17
2023-03-20T17:15:00.925Z,9.08
2023-03-20T17:17:28.911Z,9.14
2023-03-20T17:19:59.594Z,9.04
2023-03-20T17:22:29.786Z,8.91
2023-03-20T17:24:57.877Z,8.98
2023-03-20T17:27:26.605Z,8.98
2023-03-20T17:29:56.249Z,9.02
2023-03-20T17:32:24.801Z,8.92
2023-03-20T17:34:52.768Z,8.97
2023-03-20T17:37:24.739Z,9.05
2023-03-20T17:39:54.505Z,8.95
2023-03-20T17:42:24.617Z,8.91
2023-03-20T17:44:52.577Z,8.93
2023-03-20T17:47:23.242Z,9.00
2023-03-20T17:49:51.979Z,8.98
2023-03-20T17:52:23.054Z,8.90
2023-03-20T17:54:51.551Z,8.98
2023-03-20T17:57:32.732Z,8.98
2023-03-20T18:00:00.853Z,8.99
2023-03-20T18:02:28.985Z,8.90
2023-03-20T18:04:56.928Z,8.93
2023-03-20T18:07:26.310Z,8.89
2023-03-20T18:09:55.116Z,8.95
2023-03-20T18:12:23.030Z,8.89
2023-03-20T18:14:50.984Z,8.90
2023-03-20T18:17:18.985Z,8.93
2023-03-20T18:19:46.914Z,8.83
2023-03-20T18:22:14.831Z,8.80
2023-03-20T18:24:45.559Z,8.86
2023-03-20T18:27:13.685Z,8.85
2023-03-20T18:29:41.909Z,8.89
2023-03-20T18:32:12.881Z,8.88
2023-03-20T18:34:41.408Z,8.83
2023-03-20T18:37:14.068Z,8.73
2023-03-20T18:39:43.376Z,8.78
2023-03-20T18:42:11.284Z,8.78
2023-03-20T18:44:39.206Z,8.72
2023-03-20T18:47:07.151Z,8.60
2023-03-20T18:49:38.638Z,8.63
2023-03-20T18:52:06.950Z,8.73
2023-03-20T18:54:34.894Z,8.62
2023-03-20T18:57:04.614Z,8.65
2023-03-20T18:59:32.579Z,8.52
2023-03-20T19:02:00.878Z,8.44
2023-03-20T19:04:28.901Z,8.46
2023-03-20T19:06:56.848Z,8.47
2023-03-20T19:09:24.834Z,8.43
2023-03-20T19:11:52.701Z,8.46
2023-03-20T19:14:21.985Z,8.45
2023-03-20T19:16:51.089Z,8.37
2023-03-20T19:19:19.488Z,8.43
2023-03-20T19:21:47.408Z,8.45
2023-03-20T19:24:15.383Z,8.39
2023-03-20T19:26:43.308Z,8.31
2023-03-20T19:29:14.003Z,8.34
2023-03-20T19:31:43.427Z,8.28
2023-03-20T19:34:40.519Z,8.23
2023-03-20T19:37:02.491Z,8.25
2023-03-20T19:39:31.350Z,8.12
2023-03-20T19:42:15.381Z,8.20
2023-03-20T19:44:47.119Z,8.14
2023-03-20T19:47:16.430Z,8.10
2023-03-20T19:50:06.114Z,8.14
2023-03-20T19:52:36.847Z,8.05
2023-03-20T19:55:05.129Z,8.02
2023-03-20T19:57:33.100Z,8.02
2023-03-20T20:00:50.537Z,8.04
2023-03-20T20:02:50.669Z,7.90
2023-03-20T20:05:23.499Z,7.94
2023-03-20T20:11:13.109Z,8.01
2023-03-20T20:14:04.213Z,8.01
2023-03-20T20:16:31.368Z,8.03
2023-03-20T20:19:00.973Z,7.97
2023-03-20T20:24:17.244Z,8.07
2023-03-20T20:26:54.939Z,8.00
2023-03-20T20:29:25.649Z,7.98
2023-03-20T20:31:53.664Z,7.92
2023-03-20T20:39:59.976Z,7.88
2023-03-20T20:42:27.935Z,7.95
2023-03-20T20:44:55.851Z,7.85
2023-03-20T20:47:23.773Z,7.86
2023-03-20T20:49:53.791Z,7.83
2023-03-20T20:52:22.020Z,7.86
2023-03-20T20:54:50.035Z,7.86
2023-03-20T20:57:18.028Z,7.72
2023-03-20T20:59:45.935Z,7.71
2023-03-20T21:02:15.939Z,7.69
2023-03-20T21:04:44.737Z,7.69
2023-03-20T21:07:14.419Z,7.80
2023-03-20T21:09:42.459Z,7.71
2023-03-20T21:12:19.631Z,7.76
2023-03-20T21:14:58.912Z,7.74
2023-03-20T21:17:27.191Z,7.73
2023-03-20T21:19:55.713Z,7.72
2023-03-20T21:22:25.838Z,7.77
2023-03-20T21:25:11.082Z,7.70
2023-03-20T21:27:41.690Z,7.74
2023-03-20T21:30:10.732Z,7.77
2023-03-20T21:32:39.811Z,7.77
2023-03-20T21:35:09.524Z,7.77
2023-03-20T21:40:26.751Z,7.72
2023-03-20T21:42:54.746Z,7.71
2023-03-20T21:48:49.709Z,7.69
2023-03-20T21:51:49.305Z,7.77
2023-03-20T21:57:23.171Z,7.60
2023-03-20T21:59:57.907Z,7.61
2023-03-20T22:02:23.783Z,7.64
2023-03-20T22:05:37.362Z,7.64
2023-03-20T22:08:19.272Z,7.63
2023-03-20T22:25:18.481Z,7.73
2023-03-20T22:28:07.117Z,7.67
2023-03-20T22:36:43.533Z,7.57
2023-03-20T22:39:28.268Z,7.63
2023-03-20T22:42:17.201Z,7.64
2023-03-20T22:47:07.145Z,7.60
2023-03-20T22:49:35.054Z,7.63
2023-03-20T22:52:22.580Z,7.64
2023-03-20T22:54:50.917Z,7.60
2023-03-20T22:57:19.597Z,7.59
2023-03-20T22:59:49.121Z,7.64
2023-03-20T23:02:17.016Z,7.62
2023-03-20T23:04:44.977Z,7.57
2023-03-20T23:07:12.958Z,7.60
2023-03-20T23:09:40.863Z,7.54
2023-03-20T23:12:09.034Z,7.62
2023-03-20T23:14:45.426Z,7.65
2023-03-20T23:17:15.810Z,7.69
2023-03-20T23:19:49.108Z,7.64
2023-03-20T23:22:20.444Z,7.59
2023-03-20T23:24:48.452Z,7.64
2023-03-20T23:27:17.315Z,7.63
2023-03-20T23:29:45.215Z,7.67
2023-03-20T23:32:13.168Z,7.65
2023-03-20T23:34:42.464Z,7.63
2023-03-20T23:37:10.406Z,7.64
2023-03-20T23:39:38.342Z,7.64
2023-03-20T23:42:17.378Z,7.67
2023-03-20T23:44:56.436Z,7.66
2023-03-20T23:47:30.092Z,7.62
2023-03-20T23:50:06.437Z,7.66
2023-03-20T23:52:38.434Z,7.65
2023-03-20T23:55:09.273Z,7.69
2023-03-20T23:57:37.213Z,7.69
